Time;durP1;ratioP1;P1;durP2;ratioP2;P2;SDS_P1;SDS_P2;PMS_P1;PMS_P2;Temp;Humidity;BMP_temperature;BMP_pressure;BME280_temperature;BME280_humidity;BME280_pressure;Samples;Min_cycle;Max_cycle;Signal;HPM_P1;HPM_P2
2022/05/11 00:01:00;;;;;;;8.50;7.80;;;;;;;;;;5073116;28;20860;-63
2022/05/11 00:03:26;;;;;;;6.90;6.60;;;;;;;;;;5073757;28;20482;-64
2022/05/11 00:05:52;;;;;;;9.30;8.60;;;;;;;;;;5073489;28;20403;-63
2022/05/11 00:08:18;;;;;;;13.73;9.00;;;;;;;;;;5073468;28;20879;-65
2022/05/11 00:10:44;;;;;;;11.40;8.53;;;;;;;;;;5073398;28;20413;-63
2022/05/11 00:13:10;;;;;;;8.30;7.60;;;;;;;;;;5073255;28;20484;-62
2022/05/11 00:15:37;;;;;;;10.13;9.37;;;;;;;;;;5073373;28;20750;-63
2022/05/11 00:18:03;;;;;;;7.70;7.20;;;;;;;;;;5073618;28;20410;-63
2022/05/11 00:20:29;;;;;;;7.87;7.50;;;;;;;;;;5073340;28;20489;-62
2022/05/11 00:22:56;;;;;;;7.80;7.23;;;;;;;;;;5073275;28;20418;-63
2022/05/11 00:25:26;;;;;;;8.57;7.70;;;;;;;;;;5073251;28;20888;-63
2022/05/11 00:27:53;;;;;;;8.77;7.53;;;;;;;;;;5073194;28;20897;-62
2022/05/11 00:30:19;;;;;;;8.10;7.57;;;;;;;;;;5073468;28;20437;-62
2022/05/11 00:32:45;;;;;;;8.60;8.00;;;;;;;;;;5073090;28;20462;-62
2022/05/11 00:35:11;;;;;;;8.00;7.60;;;;;;;;;;5073172;28;20409;-62
2022/05/11 00:37:37;;;;;;;7.43;7.00;;;;;;;;;;5073406;28;20427;-62
2022/05/11 00:40:04;;;;;;;7.00;6.70;;;;;;;;;;5073011;28;20473;-62
2022/05/11 00:42:30;;;;;;;7.80;7.50;;;;;;;;;;5073083;28;20417;-61
2022/05/11 00:44:56;;;;;;;7.77;7.37;;;;;;;;;;5073136;28;20508;-61
2022/05/11 00:47:24;;;;;;;7.33;7.00;;;;;;;;;;5073086;28;20415;-62
2022/05/11 00:49:56;;;;;;;8.13;7.53;;;;;;;;;;5072969;28;20413;-61
2022/05/11 00:52:24;;;;;;;7.80;7.30;;;;;;;;;;5072946;28;21012;-61
2022/05/11 00:55:00;;;;;;;8.03;7.60;;;;;;;;;;5072895;28;20479;-62
2022/05/11 00:57:29;;;;;;;7.13;6.70;;;;;;;;;;5072850;28;20413;-61
2022/05/11 00:59:55;;;;;;;7.37;7.00;;;;;;;;;;5072821;28;20407;-62
2022/05/11 01:02:23;;;;;;;7.20;6.63;;;;;;;;;;5072750;28;20406;-62
2022/05/11 01:04:52;;;;;;;9.47;8.87;;;;;;;;;;5072842;28;20430;-62
2022/05/11 01:07:18;;;;;;;8.30;7.60;;;;;;;;;;5072775;28;20415;-61
2022/05/11 01:09:44;;;;;;;7.80;7.30;;;;;;;;;;5072849;28;20500;-62
2022/05/11 01:12:12;;;;;;;7.77;7.33;;;;;;;;;;5075884;28;20466;-62
2022/05/11 01:14:39;;;;;;;9.00;8.30;;;;;;;;;;5076548;28;20437;-63
2022/05/11 01:17:06;;;;;;;8.50;7.80;;;;;;;;;;5076420;28;20413;-63
2022/05/11 01:19:33;;;;;;;8.13;7.63;;;;;;;;;;5076378;28;20533;-62
2022/05/11 01:22:03;;;;;;;8.27;7.67;;;;;;;;;;5076384;28;20397;-63
2022/05/11 01:24:41;;;;;;;7.77;7.27;;;;;;;;;;5076208;28;20834;-62
2022/05/11 01:27:26;;;;;;;8.67;8.07;;;;;;;;;;5076056;28;20914;-62
2022/05/11 01:29:52;;;;;;;8.80;8.30;;;;;;;;;;5076241;28;20912;-62
2022/05/11 01:32:21;;;;;;;8.20;7.73;;;;;;;;;;5076085;28;20432;-61
2022/05/11 01:34:51;;;;;;;8.30;7.37;;;;;;;;;;5076319;28;20424;-62
2022/05/11 01:37:17;;;;;;;7.90;7.50;;;;;;;;;;5074764;28;20944;-61
2022/05/11 01:39:44;;;;;;;8.90;8.40;;;;;;;;;;5075896;28;20422;-62
2022/05/11 01:42:11;;;;;;;10.60;7.90;;;;;;;;;;5076174;28;20416;-62
2022/05/11 01:44:38;;;;;;;8.13;7.53;;;;;;;;;;5074647;28;20913;-62
2022/05/11 01:47:04;;;;;;;8.23;7.63;;;;;;;;;;5076169;28;20413;-63
2022/05/11 01:49:30;;;;;;;8.10;7.37;;;;;;;;;;5076080;28;20413;-63
2022/05/11 01:51:57;;;;;;;7.40;7.10;;;;;;;;;;5075828;28;20971;-61
2022/05/11 01:54:24;;;;;;;8.63;8.13;;;;;;;;;;5075808;28;20557;-62
2022/05/11 01:56:50;;;;;;;8.70;8.30;;;;;;;;;;5075746;28;20401;-61
2022/05/11 01:59:16;;;;;;;7.70;7.30;;;;;;;;;;5075692;28;20466;-62
2022/05/11 02:01:42;;;;;;;7.47;7.00;;;;;;;;;;5075661;28;20401;-61
2022/05/11 02:07:49;;;;;;;7.60;7.20;;;;;;;;;;5075550;28;20416;-62
2022/05/11 02:09:41;;;;;;;9.10;8.50;;;;;;;;;;5075729;28;20919;-62
2022/05/11 02:12:07;;;;;;;8.53;8.03;;;;;;;;;;5075412;28;20400;-61
2022/05/11 02:14:33;;;;;;;8.47;7.87;;;;;;;;;;5075421;28;20399;-62
2022/05/11 02:16:59;;;;;;;8.63;7.93;;;;;;;;;;5075287;28;20450;-62
2022/05/11 02:19:25;;;;;;;8.00;7.43;;;;;;;;;;5075242;28;20445;-62
2022/05/11 02:21:57;;;;;;;8.30;7.80;;;;;;;;;;5074758;28;20401;-62
2022/05/11 02:24:23;;;;;;;8.57;8.07;;;;;;;;;;5075244;28;20416;-62
2022/05/11 02:26:49;;;;;;;8.50;8.03;;;;;;;;;;5075159;28;20401;-61
2022/05/11 02:29:15;;;;;;;8.00;7.60;;;;;;;;;;5074984;28;20930;-62
2022/05/11 02:31:41;;;;;;;7.57;7.13;;;;;;;;;;5075027;28;20412;-62
2022/05/11 02:34:07;;;;;;;9.53;8.70;;;;;;;;;;5073888;28;20478;-61
2022/05/11 02:36:36;;;;;;;8.43;8.03;;;;;;;;;;5073612;28;20471;-63
2022/05/11 02:39:02;;;;;;;8.27;7.67;;;;;;;;;;5074894;28;20836;-63
2022/05/11 02:41:28;;;;;;;8.27;7.77;;;;;;;;;;5074652;28;20472;-62
2022/05/11 02:43:54;;;;;;;7.80;7.30;;;;;;;;;;5074740;28;20477;-63
2022/05/11 02:46:23;;;;;;;13.67;8.70;;;;;;;;;;5074770;28;20907;-62
2022/05/11 02:48:49;;;;;;;8.33;7.77;;;;;;;;;;5074651;28;20420;-62
2022/05/11 02:51:15;;;;;;;8.17;7.77;;;;;;;;;;5073422;28;20450;-62
2022/05/11 02:53:41;;;;;;;9.10;8.30;;;;;;;;;;5074511;28;20555;-62
2022/05/11 02:56:07;;;;;;;7.43;6.93;;;;;;;;;;5074549;28;20875;-62
2022/05/11 02:58:33;;;;;;;16.67;7.87;;;;;;;;;;5074444;28;20421;-63
2022/05/11 03:01:00;;;;;;;7.27;6.97;;;;;;;;;;5074469;28;20398;-62
2022/05/11 03:03:33;;;;;;;8.30;7.80;;;;;;;;;;5074403;28;20422;-62
2022/05/11 03:05:59;;;;;;;7.80;7.37;;;;;;;;;;5074250;28;20948;-62
2022/05/11 03:08:25;;;;;;;8.50;7.90;;;;;;;;;;5074268;28;20501;-63
2022/05/11 03:10:51;;;;;;;7.47;7.17;;;;;;;;;;5074147;28;20411;-62
2022/05/11 03:13:17;;;;;;;8.43;7.97;;;;;;;;;;5074021;28;20478;-62
2022/05/11 03:15:43;;;;;;;8.60;7.90;;;;;;;;;;5074142;28;20926;-63
2022/05/11 03:18:09;;;;;;;9.83;8.93;;;;;;;;;;5074090;28;20928;-63
2022/05/11 03:20:35;;;;;;;7.57;7.27;;;;;;;;;;5074038;28;20415;-62
2022/05/11 03:23:01;;;;;;;8.43;7.93;;;;;;;;;;5074059;28;20448;-63
2022/05/11 03:25:27;;;;;;;8.40;7.90;;;;;;;;;;5073882;28;20421;-62
2022/05/11 03:27:53;;;;;;;8.47;7.93;;;;;;;;;;5073856;28;20415;-62
2022/05/11 03:30:20;;;;;;;8.17;7.57;;;;;;;;;;5074088;28;20403;-62
2022/05/11 03:35:30;;;;;;;8.63;8.03;;;;;;;;;;5074010;28;20416;-62
2022/05/11 03:37:56;;;;;;;8.00;7.60;;;;;;;;;;5073763;28;20402;-62
2022/05/11 03:40:22;;;;;;;7.90;7.20;;;;;;;;;;5073687;28;20454;-62
2022/05/11 03:42:48;;;;;;;33.73;27.33;;;;;;;;;;5073592;28;20880;-62
2022/05/11 03:45:16;;;;;;;31.10;27.67;;;;;;;;;;5073725;28;20413;-61
2022/05/11 03:47:42;;;;;;;9.60;9.00;;;;;;;;;;5073821;28;20450;-62
2022/05/11 03:50:09;;;;;;;7.80;7.40;;;;;;;;;;5073587;28;20403;-61
2022/05/11 03:52:36;;;;;;;8.17;7.77;;;;;;;;;;5073600;28;20451;-62
2022/05/11 03:55:02;;;;;;;7.43;7.03;;;;;;;;;;5073506;28;20413;-63
2022/05/11 03:57:28;;;;;;;7.33;6.97;;;;;;;;;;5073722;28;20418;-62
2022/05/11 03:59:54;;;;;;;7.93;7.33;;;;;;;;;;5073497;28;20782;-63
2022/05/11 04:02:20;;;;;;;11.10;10.10;;;;;;;;;;5073798;28;20435;-62
2022/05/11 04:04:46;;;;;;;7.70;7.30;;;;;;;;;;5073494;28;20411;-63
2022/05/11 04:07:12;;;;;;;10.87;7.90;;;;;;;;;;5073379;28;20399;-62
2022/05/11 04:09:39;;;;;;;7.87;7.30;;;;;;;;;;5073359;28;20441;-62
2022/05/11 04:12:06;;;;;;;9.23;8.43;;;;;;;;;;5072031;28;20435;-63
2022/05/11 04:14:32;;;;;;;9.00;8.30;;;;;;;;;;5072133;28;20451;-62
2022/05/11 04:16:59;;;;;;;7.80;7.40;;;;;;;;;;5073218;28;20464;-62
2022/05/11 04:19:28;;;;;;;8.40;8.00;;;;;;;;;;5073245;28;20437;-65
2022/05/11 04:21:54;;;;;;;7.57;7.17;;;;;;;;;;5073313;28;20507;-64
2022/05/11 04:24:20;;;;;;;9.30;8.20;;;;;;;;;;5073232;28;20438;-62
2022/05/11 04:26:46;;;;;;;7.90;7.33;;;;;;;;;;5073181;28;20418;-61
2022/05/11 04:29:12;;;;;;;18.07;10.47;;;;;;;;;;5073132;28;20414;-62
2022/05/11 04:31:38;;;;;;;16.50;14.03;;;;;;;;;;5073153;28;20548;-62
2022/05/11 04:34:04;;;;;;;7.67;7.30;;;;;;;;;;5073055;28;20464;-61
2022/05/11 04:36:30;;;;;;;8.50;7.97;;;;;;;;;;5073049;28;20401;-61
2022/05/11 04:38:57;;;;;;;15.67;8.73;;;;;;;;;;5073332;28;20415;-61
2022/05/11 04:41:23;;;;;;;7.57;7.10;;;;;;;;;;5072927;28;20468;-62
2022/05/11 04:43:49;;;;;;;8.30;7.90;;;;;;;;;;5073017;28;20948;-62
2022/05/11 04:46:15;;;;;;;8.80;8.13;;;;;;;;;;5074909;28;20400;-63
2022/05/11 04:48:44;;;;;;;8.07;7.57;;;;;;;;;;5076958;28;20522;-62
2022/05/11 04:51:11;;;;;;;8.83;8.23;;;;;;;;;;5077185;28;20490;-63
2022/05/11 04:53:37;;;;;;;9.40;8.70;;;;;;;;;;5076754;28;20853;-62
2022/05/11 04:56:03;;;;;;;8.87;8.10;;;;;;;;;;5076917;28;20399;-62
2022/05/11 04:58:30;;;;;;;10.13;8.43;;;;;;;;;;5076716;28;20904;-63
2022/05/11 05:00:56;;;;;;;7.80;7.40;;;;;;;;;;5076689;28;20399;-61
2022/05/11 05:03:22;;;;;;;8.57;7.97;;;;;;;;;;5076609;28;20470;-62
2022/05/11 05:05:48;;;;;;;8.33;7.60;;;;;;;;;;5076730;28;20398;-64
2022/05/11 05:08:14;;;;;;;8.43;7.83;;;;;;;;;;5076565;28;20411;-63
2022/05/11 05:10:41;;;;;;;8.60;7.43;;;;;;;;;;5076587;28;20387;-63
2022/05/11 05:13:11;;;;;;;7.80;7.40;;;;;;;;;;5076574;28;20458;-63
2022/05/11 05:15:38;;;;;;;8.30;7.70;;;;;;;;;;5076495;28;20404;-62
2022/05/11 05:18:06;;;;;;;8.70;8.17;;;;;;;;;;5076671;28;20757;-62
2022/05/11 05:20:32;;;;;;;8.50;8.00;;;;;;;;;;5076607;28;20404;-62
2022/05/11 05:22:58;;;;;;;8.27;7.67;;;;;;;;;;5076336;28;20464;-62
2022/05/11 05:25:25;;;;;;;7.90;7.50;;;;;;;;;;5076353;28;20412;-62
2022/05/11 05:27:51;;;;;;;8.23;7.73;;;;;;;;;;5076525;28;20433;-62
2022/05/11 05:33:03;;;;;;;9.37;8.33;;;;;;;;;;5076263;28;20507;-63
2022/05/11 05:35:29;;;;;;;8.77;8.00;;;;;;;;;;5076173;28;20409;-64
2022/05/11 05:37:56;;;;;;;8.30;7.80;;;;;;;;;;5076157;28;20409;-63
2022/05/11 05:40:22;;;;;;;8.70;8.10;;;;;;;;;;5075795;28;20472;-63
2022/05/11 05:42:48;;;;;;;7.67;7.17;;;;;;;;;;5076013;28;20527;-62
2022/05/11 05:45:14;;;;;;;7.43;6.93;;;;;;;;;;5076043;28;20415;-63
2022/05/11 05:47:41;;;;;;;7.17;6.80;;;;;;;;;;5075887;28;20409;-62
2022/05/11 05:50:07;;;;;;;6.67;6.37;;;;;;;;;;5075977;28;20405;-63
2022/05/11 05:52:33;;;;;;;7.57;7.00;;;;;;;;;;5075841;28;20457;-63
2022/05/11 05:54:59;;;;;;;7.03;6.73;;;;;;;;;;5075828;28;20410;-64
2022/05/11 05:57:27;;;;;;;7.73;7.10;;;;;;;;;;5074371;28;20402;-63
2022/05/11 05:59:53;;;;;;;7.40;6.80;;;;;;;;;;5075996;28;20760;-63
2022/05/11 06:02:19;;;;;;;8.07;7.37;;;;;;;;;;5075731;28;20413;-63
2022/05/11 06:04:46;;;;;;;7.53;7.13;;;;;;;;;;5075775;28;20414;-63
2022/05/11 06:07:12;;;;;;;7.37;6.83;;;;;;;;;;5075580;28;20405;-63
2022/05/11 06:09:39;;;;;;;10.53;7.97;;;;;;;;;;5075449;28;20414;-63
2022/05/11 06:12:06;;;;;;;8.17;7.57;;;;;;;;;;5075412;28;20399;-64
2022/05/11 06:14:32;;;;;;;8.53;7.43;;;;;;;;;;5075299;28;20477;-63
2022/05/11 06:17:01;;;;;;;8.30;7.60;;;;;;;;;;5075197;28;20403;-63
2022/05/11 06:19:28;;;;;;;8.40;7.70;;;;;;;;;;5074998;28;20958;-62
2022/05/11 06:21:54;;;;;;;7.57;7.00;;;;;;;;;;5075410;28;20411;-62
2022/05/11 06:24:20;;;;;;;7.80;7.27;;;;;;;;;;5075029;28;20887;-62
2022/05/11 06:26:46;;;;;;;7.67;7.33;;;;;;;;;;5075052;28;20453;-62
2022/05/11 06:29:12;;;;;;;7.87;7.27;;;;;;;;;;5074967;28;20466;-62
2022/05/11 06:31:38;;;;;;;8.07;7.40;;;;;;;;;;5074914;28;20404;-61
2022/05/11 06:34:04;;;;;;;9.53;7.70;;;;;;;;;;5075230;28;20463;-62
2022/05/11 06:36:30;;;;;;;7.43;7.03;;;;;;;;;;5074834;28;20775;-62
2022/05/11 06:38:56;;;;;;;9.07;8.23;;;;;;;;;;5074800;28;20608;-61
2022/05/11 06:41:25;;;;;;;7.03;6.53;;;;;;;;;;5074578;28;20497;-62
2022/05/11 06:43:51;;;;;;;6.83;6.43;;;;;;;;;;5074695;28;20431;-62
2022/05/11 06:46:18;;;;;;;6.77;6.27;;;;;;;;;;5074730;28;20410;-62
2022/05/11 06:48:45;;;;;;;6.03;5.83;;;;;;;;;;5074873;28;20791;-61
2022/05/11 06:51:11;;;;;;;6.33;6.03;;;;;;;;;;5074693;28;20412;-62
2022/05/11 06:59:22;;;;;;;5.83;5.37;;;;;;;;;;5074750;28;20420;-62
2022/05/11 07:01:49;;;;;;;6.23;5.83;;;;;;;;;;5074445;28;20892;-62
2022/05/11 07:04:15;;;;;;;5.90;5.50;;;;;;;;;;5074405;28;20890;-61
2022/05/11 07:06:41;;;;;;;5.30;5.10;;;;;;;;;;5074446;28;20406;-62
2022/05/11 07:09:07;;;;;;;5.13;4.93;;;;;;;;;;5073883;28;20962;-62
2022/05/11 07:14:18;;;;;;;4.93;4.50;;;;;;;;;;5074103;28;20515;-62
2022/05/11 07:16:43;;;;;;;10.17;5.40;;;;;;;;;;5074196;28;20873;-62
2022/05/11 07:19:09;;;;;;;5.70;5.40;;;;;;;;;;5074053;28;20421;-61
2022/05/11 07:21:35;;;;;;;5.43;5.23;;;;;;;;;;5074042;28;20443;-61
2022/05/11 07:24:01;;;;;;;4.93;4.63;;;;;;;;;;5074084;28;20424;-62
2022/05/11 07:26:27;;;;;;;9.83;4.83;;;;;;;;;;5073915;28;20405;-62
2022/05/11 07:28:53;;;;;;;4.97;4.83;;;;;;;;;;5074145;28;20439;-61
2022/05/11 07:31:19;;;;;;;4.77;4.60;;;;;;;;;;5074043;28;20436;-61
2022/05/11 07:33:45;;;;;;;5.70;5.40;;;;;;;;;;5073812;28;20532;-62
2022/05/11 07:36:12;;;;;;;5.03;4.70;;;;;;;;;;5073866;28;20402;-62
2022/05/11 07:38:40;;;;;;;5.47;5.00;;;;;;;;;;5073810;28;20507;-62
2022/05/11 07:41:07;;;;;;;5.00;4.90;;;;;;;;;;5073688;28;20910;-62
2022/05/11 07:43:33;;;;;;;5.23;4.83;;;;;;;;;;5073747;28;20794;-62
2022/05/11 07:45:59;;;;;;;5.33;4.97;;;;;;;;;;5073699;28;20403;-62
2022/05/11 07:48:25;;;;;;;5.87;5.27;;;;;;;;;;5073708;28;20425;-63
2022/05/11 07:50:51;;;;;;;5.67;5.27;;;;;;;;;;5073622;28;20410;-63
2022/05/11 07:53:17;;;;;;;4.90;4.67;;;;;;;;;;5073763;28;20475;-63
2022/05/11 07:55:43;;;;;;;5.23;4.90;;;;;;;;;;5073616;28;20447;-62
2022/05/11 08:00:59;;;;;;;9.13;5.43;;;;;;;;;;5073706;28;20990;-63
2022/05/11 08:03:25;;;;;;;4.30;4.20;;;;;;;;;;5073461;28;20412;-64
2022/05/11 08:05:51;;;;;;;5.97;5.57;;;;;;;;;;5073486;28;20406;-65
2022/05/11 08:08:17;;;;;;;4.80;4.50;;;;;;;;;;5072142;28;20420;-65
2022/05/11 08:10:45;;;;;;;4.90;4.60;;;;;;;;;;5073396;28;20906;-65
2022/05/11 08:13:11;;;;;;;7.97;4.87;;;;;;;;;;5073482;28;20474;-63
2022/05/11 08:15:39;;;;;;;7.10;6.30;;;;;;;;;;5073652;28;20544;-64
2022/05/11 08:18:05;;;;;;;6.83;5.77;;;;;;;;;;5073652;28;20402;-64
2022/05/11 08:20:34;;;;;;;4.90;4.60;;;;;;;;;;5072540;28;20409;-63
2022/05/11 08:23:02;;;;;;;5.03;4.10;;;;;;;;;;5073655;28;20408;-64
2022/05/11 08:25:29;;;;;;;4.60;4.27;;;;;;;;;;5073312;28;20480;-63
2022/05/11 08:27:56;;;;;;;4.73;4.33;;;;;;;;;;5073306;28;20906;-64
2022/05/11 08:33:30;;;;;;;4.97;4.30;;;;;;;;;;5073382;28;20520;-64
2022/05/11 08:35:59;;;;;;;4.23;3.90;;;;;;;;;;5073071;28;20989;-63
2022/05/11 08:38:28;;;;;;;4.10;3.90;;;;;;;;;;5073405;28;20512;-63
2022/05/11 08:40:59;;;;;;;7.50;4.13;;;;;;;;;;5073101;28;20532;-64
2022/05/11 08:43:28;;;;;;;4.37;4.17;;;;;;;;;;5073105;28;20472;-63
2022/05/11 08:46:05;;;;;;;7.83;3.87;;;;;;;;;;5073385;28;20428;-64
2022/05/11 08:48:34;;;;;;;4.10;4.00;;;;;;;;;;5073381;28;20414;-64
2022/05/11 08:51:01;;;;;;;4.10;3.77;;;;;;;;;;5073143;28;20487;-63
2022/05/11 08:53:30;;;;;;;4.07;3.87;;;;;;;;;;5072982;28;20579;-62
2022/05/11 08:55:57;;;;;;;3.60;3.50;;;;;;;;;;5072987;28;20489;-62
2022/05/11 08:58:29;;;;;;;3.70;3.60;;;;;;;;;;5072932;28;20834;-62
2022/05/11 09:00:57;;;;;;;5.70;4.07;;;;;;;;;;5073262;28;20404;-61
2022/05/11 09:03:31;;;;;;;3.90;3.90;;;;;;;;;;5072843;28;20427;-61
2022/05/11 09:06:01;;;;;;;3.57;3.50;;;;;;;;;;5072938;28;20392;-63
2022/05/11 09:08:29;;;;;;;6.33;4.00;;;;;;;;;;5072994;28;20410;-64
2022/05/11 09:10:55;;;;;;;3.47;3.20;;;;;;;;;;5072909;28;20401;-63
2022/05/11 09:13:23;;;;;;;5.97;3.80;;;;;;;;;;5072918;28;20480;-63
2022/05/11 09:15:49;;;;;;;4.70;3.97;;;;;;;;;;5073120;28;20398;-62
2022/05/11 09:18:15;;;;;;;10.53;3.63;;;;;;;;;;5072769;28;20419;-63
2022/05/11 09:20:46;;;;;;;8.23;3.30;;;;;;;;;;5072808;28;20408;-65
2022/05/11 09:23:12;;;;;;;3.87;3.67;;;;;;;;;;5072713;28;20410;-65
2022/05/11 09:25:52;;;;;;;4.00;3.90;;;;;;;;;;5072917;28;20404;-64
2022/05/11 09:28:30;;;;;;;4.03;3.43;;;;;;;;;;5072688;28;20455;-62
2022/05/11 09:31:01;;;;;;;3.73;3.50;;;;;;;;;;5072743;28;20887;-64
2022/05/11 09:33:33;;;;;;;4.17;3.90;;;;;;;;;;5076055;28;20885;-61
2022/05/11 09:36:02;;;;;;;5.50;4.00;;;;;;;;;;5076239;28;20911;-62
2022/05/11 09:38:28;;;;;;;5.03;4.60;;;;;;;;;;5076501;28;20385;-62
2022/05/11 09:40:56;;;;;;;3.70;3.60;;;;;;;;;;5076103;28;20468;-62
2022/05/11 09:43:35;;;;;;;4.60;4.43;;;;;;;;;;5076200;28;20277;-62
2022/05/11 09:46:15;;;;;;;3.93;3.50;;;;;;;;;;5076030;28;20406;-62
2022/05/11 09:48:54;;;;;;;5.90;3.80;;;;;;;;;;5076223;28;20408;-62
2022/05/11 09:51:23;;;;;;;4.13;3.97;;;;;;;;;;5075941;28;20409;-61
2022/05/11 09:53:57;;;;;;;5.07;4.77;;;;;;;;;;5075788;28;20501;-61
2022/05/11 09:56:27;;;;;;;3.60;3.50;;;;;;;;;;5076184;28;20408;-62
2022/05/11 09:58:53;;;;;;;3.93;3.83;;;;;;;;;;5075649;28;20929;-62
2022/05/11 10:01:29;;;;;;;4.20;3.80;;;;;;;;;;5076020;28;20407;-62
2022/05/11 10:04:00;;;;;;;3.50;3.27;;;;;;;;;;5076016;28;20427;-62
2022/05/11 10:06:30;;;;;;;4.37;4.00;;;;;;;;;;5075777;28;20394;-64
2022/05/11 10:08:57;;;;;;;4.47;4.27;;;;;;;;;;5075542;28;20406;-63
2022/05/11 10:11:25;;;;;;;6.43;3.97;;;;;;;;;;5075551;28;20443;-63
2022/05/11 10:13:55;;;;;;;5.40;4.37;;;;;;;;;;5075430;28;20546;-63
2022/05/11 10:22:15;;;;;;;4.40;4.27;;;;;;;;;;5075584;28;20428;-64
2022/05/11 10:24:51;;;;;;;9.13;4.40;;;;;;;;;;5075299;28;20897;-64
2022/05/11 10:27:17;;;;;;;7.33;4.10;;;;;;;;;;5075247;28;20455;-64
2022/05/11 10:29:46;;;;;;;4.50;4.10;;;;;;;;;;5075202;28;20470;-64
2022/05/11 10:32:25;;;;;;;5.50;4.10;;;;;;;;;;5075084;28;20398;-62
2022/05/11 10:35:03;;;;;;;4.07;3.97;;;;;;;;;;5075308;28;20783;-67
2022/05/11 10:37:32;;;;;;;3.70;3.50;;;;;;;;;;5075091;28;20417;-63
2022/05/11 10:40:17;;;;;;;4.77;3.80;;;;;;;;;;5074822;28;20548;-62
2022/05/11 10:43:04;;;;;;;4.90;3.80;;;;;;;;;;5074582;28;20418;-64
2022/05/11 10:45:41;;;;;;;4.17;3.90;;;;;;;;;;5074842;28;20399;-63
2022/05/11 10:48:10;;;;;;;4.27;4.07;;;;;;;;;;5074842;28;20470;-63
2022/05/11 10:50:46;;;;;;;4.10;4.00;;;;;;;;;;5075024;28;20777;-62
2022/05/11 10:53:21;;;;;;;4.37;4.00;;;;;;;;;;5074606;28;20552;-64
2022/05/11 10:56:05;;;;;;;4.03;3.83;;;;;;;;;;5074605;28;20441;-65
2022/05/11 10:58:40;;;;;;;3.57;3.47;;;;;;;;;;5074626;28;20457;-63
2022/05/11 11:01:11;;;;;;;3.93;3.77;;;;;;;;;;5074854;28;20390;-64
2022/05/11 11:03:39;;;;;;;4.73;3.87;;;;;;;;;;5073271;28;20440;-67
2022/05/11 11:08:58;;;;;;;3.77;3.70;;;;;;;;;;5074398;28;20490;-62
2022/05/11 11:11:47;;;;;;;7.53;3.83;;;;;;;;;;5074457;28;20764;-63
2022/05/11 11:14:16;;;;;;;4.37;4.07;;;;;;;;;;5074476;28;20481;-62
2022/05/11 11:16:42;;;;;;;4.07;3.83;;;;;;;;;;5074370;28;20402;-63
2022/05/11 11:19:10;;;;;;;3.80;3.50;;;;;;;;;;5074086;28;20445;-63
2022/05/11 11:21:40;;;;;;;4.50;4.30;;;;;;;;;;5074345;28;20410;-63
2022/05/11 11:24:23;;;;;;;7.40;4.30;;;;;;;;;;5074145;28;20402;-62
2022/05/11 11:26:58;;;;;;;3.70;3.60;;;;;;;;;;5074078;28;20881;-63
2022/05/11 11:29:26;;;;;;;7.60;4.00;;;;;;;;;;5073865;28;20441;-62
2022/05/11 11:31:58;;;;;;;6.97;4.13;;;;;;;;;;5073816;28;20445;-61
2022/05/11 11:34:27;;;;;;;4.87;4.47;;;;;;;;;;5073789;28;20872;-61
2022/05/11 11:36:53;;;;;;;3.73;3.43;;;;;;;;;;5074107;28;20398;-62
2022/05/11 11:39:38;;;;;;;4.00;3.90;;;;;;;;;;5073864;28;20407;-61
2022/05/11 11:42:06;;;;;;;6.53;3.90;;;;;;;;;;5073895;28;20415;-62
2022/05/11 11:44:46;;;;;;;3.83;3.73;;;;;;;;;;5074013;28;20509;-62
2022/05/11 11:47:27;;;;;;;4.20;3.90;;;;;;;;;;5074130;28;20403;-60
2022/05/11 11:49:57;;;;;;;4.30;4.03;;;;;;;;;;5073953;28;20402;-61
2022/05/11 11:52:43;;;;;;;3.80;3.63;;;;;;;;;;5073681;28;20399;-62
2022/05/11 11:55:18;;;;;;;4.13;3.40;;;;;;;;;;5073605;28;20430;-62
2022/05/11 11:57:45;;;;;;;4.83;4.20;;;;;;;;;;5073607;28;20496;-62
2022/05/11 12:00:20;;;;;;;3.73;3.43;;;;;;;;;;5073544;28;20436;-62
2022/05/11 12:02:47;;;;;;;7.13;3.97;;;;;;;;;;5073612;28;20492;-62
2022/05/11 12:05:29;;;;;;;3.90;3.57;;;;;;;;;;5073500;28;20410;-63
2022/05/11 12:16:28;;;;;;;3.70;3.37;;;;;;;;;;5073777;28;20414;-62
2022/05/11 12:19:07;;;;;;;3.50;3.40;;;;;;;;;;5073403;28;20410;-62
2022/05/11 12:21:36;;;;;;;3.63;3.37;;;;;;;;;;5073312;28;20401;-63
2022/05/11 12:24:04;;;;;;;3.70;3.40;;;;;;;;;;5073385;28;20410;-63
2022/05/11 12:26:32;;;;;;;3.60;3.30;;;;;;;;;;5073880;28;20424;-63
2022/05/11 12:32:07;;;;;;;3.60;2.97;;;;;;;;;;5073516;28;20486;-63
2022/05/11 12:34:38;;;;;;;3.40;3.30;;;;;;;;;;5073417;28;20549;-64
2022/05/11 12:37:10;;;;;;;3.10;2.90;;;;;;;;;;5073323;28;20406;-64
2022/05/11 12:39:38;;;;;;;4.07;2.90;;;;;;;;;;5073002;28;20404;-63
2022/05/11 12:42:04;;;;;;;4.83;2.47;;;;;;;;;;5073461;28;20410;-63
2022/05/11 12:44:32;;;;;;;2.70;2.60;;;;;;;;;;5071876;28;20410;-63
2022/05/11 12:47:04;;;;;;;3.00;2.90;;;;;;;;;;5073172;28;20414;-62
2022/05/11 12:49:30;;;;;;;3.00;2.80;;;;;;;;;;5073121;28;20459;-63
2022/05/11 12:52:01;;;;;;;3.70;2.67;;;;;;;;;;5073130;28;20935;-64
2022/05/11 12:54:31;;;;;;;2.57;2.47;;;;;;;;;;5072849;28;21015;-63
2022/05/11 12:57:17;;;;;;;2.77;2.60;;;;;;;;;;5073192;28;20403;-62
2022/05/11 12:59:51;;;;;;;2.80;2.60;;;;;;;;;;5073157;28;20418;-63
2022/05/11 13:02:17;;;;;;;2.93;2.73;;;;;;;;;;5072934;28;20443;-64
2022/05/11 13:04:51;;;;;;;2.30;2.20;;;;;;;;;;5072759;28;20398;-64
2022/05/11 13:07:17;;;;;;;3.33;3.03;;;;;;;;;;5074889;28;20908;-65
2022/05/11 13:09:48;;;;;;;3.33;3.03;;;;;;;;;;5076628;28;20934;-64
2022/05/11 13:12:15;;;;;;;3.13;2.83;;;;;;;;;;5076686;28;20489;-64
2022/05/11 13:14:48;;;;;;;8.23;2.87;;;;;;;;;;5076791;28;20477;-64
2022/05/11 13:17:19;;;;;;;4.87;2.70;;;;;;;;;;5076577;28;20869;-64
2022/05/11 13:19:51;;;;;;;2.77;2.77;;;;;;;;;;5076532;28;20945;-65
2022/05/11 13:22:24;;;;;;;2.60;2.50;;;;;;;;;;5076460;28;20414;-66
2022/05/11 13:24:52;;;;;;;4.17;3.33;;;;;;;;;;5076710;28;20413;-63
2022/05/11 13:27:25;;;;;;;2.70;2.50;;;;;;;;;;5076278;28;20958;-65
2022/05/11 13:30:01;;;;;;;3.00;2.80;;;;;;;;;;5076219;28;20425;-64
2022/05/11 13:32:27;;;;;;;3.07;2.23;;;;;;;;;;5076269;28;20414;-66
2022/05/11 13:35:13;;;;;;;4.33;2.60;;;;;;;;;;5076197;28;20479;-65
2022/05/11 13:37:39;;;;;;;5.67;2.93;;;;;;;;;;5076185;28;20413;-65
2022/05/11 13:40:05;;;;;;;3.03;2.90;;;;;;;;;;5076044;28;20458;-65
2022/05/11 13:42:31;;;;;;;3.07;2.90;;;;;;;;;;5076215;28;20418;-65
2022/05/11 13:45:04;;;;;;;3.10;2.30;;;;;;;;;;5076097;28;20418;-64
2022/05/11 13:50:33;;;;;;;4.20;2.83;;;;;;;;;;5075953;28;20405;-65
2022/05/11 13:53:05;;;;;;;3.90;2.47;;;;;;;;;;5075864;28;20816;-65
2022/05/11 13:55:35;;;;;;;3.50;3.20;;;;;;;;;;5075900;28;20890;-65
2022/05/11 13:58:20;;;;;;;6.73;2.50;;;;;;;;;;5076130;28;20771;-65
2022/05/11 14:00:45;;;;;;;3.30;3.10;;;;;;;;;;5075754;28;20410;-66
2022/05/11 14:03:14;;;;;;;2.73;2.47;;;;;;;;;;5075780;28;20414;-65
2022/05/11 14:05:39;;;;;;;19.17;3.50;;;;;;;;;;5075760;28;20421;-64
2022/05/11 14:08:05;;;;;;;4.30;2.70;;;;;;;;;;5075681;28;20411;-65
2022/05/11 14:10:31;;;;;;;2.70;2.50;;;;;;;;;;5075443;28;20210;-66
2022/05/11 14:12:57;;;;;;;2.17;2.07;;;;;;;;;;5075354;28;20500;-65
2022/05/11 14:15:23;;;;;;;2.67;2.57;;;;;;;;;;5075458;28;20406;-65
2022/05/11 14:17:51;;;;;;;4.40;2.27;;;;;;;;;;5074616;28;20199;-65
2022/05/11 14:20:21;;;;;;;3.13;2.47;;;;;;;;;;5075276;28;20776;-65
2022/05/11 14:22:47;;;;;;;5.80;2.57;;;;;;;;;;5075227;28;20890;-65
2022/05/11 14:25:14;;;;;;;2.47;2.37;;;;;;;;;;5075225;28;20398;-64
2022/05/11 14:27:40;;;;;;;3.30;3.00;;;;;;;;;;5075109;28;20497;-65
2022/05/11 14:30:07;;;;;;;2.33;2.33;;;;;;;;;;5075034;28;20407;-65
2022/05/11 14:32:35;;;;;;;18.37;2.40;;;;;;;;;;5074976;28;20881;-65
2022/05/11 14:35:01;;;;;;;2.30;2.30;;;;;;;;;;5074928;28;20410;-65
2022/05/11 14:37:29;;;;;;;2.37;2.27;;;;;;;;;;5074847;28;20475;-65
2022/05/11 14:39:56;;;;;;;6.73;2.50;;;;;;;;;;5074708;28;20486;-65
2022/05/11 14:42:22;;;;;;;2.77;2.57;;;;;;;;;;5074824;28;20876;-65
2022/05/11 14:44:48;;;;;;;2.37;2.27;;;;;;;;;;5074719;28;20913;-66
2022/05/11 14:47:14;;;;;;;2.60;2.40;;;;;;;;;;5074711;28;20401;-65
2022/05/11 14:49:41;;;;;;;4.60;2.73;;;;;;;;;;5074637;28;20893;-65
2022/05/11 14:52:08;;;;;;;5.13;2.13;;;;;;;;;;5074386;28;20870;-64
2022/05/11 14:54:34;;;;;;;2.63;2.47;;;;;;;;;;5074537;28;20492;-64
2022/05/11 15:02:30;;;;;;;2.50;2.40;;;;;;;;;;5074485;28;20762;-64
2022/05/11 15:04:56;;;;;;;2.30;2.10;;;;;;;;;;5074263;28;20398;-64
2022/05/11 15:07:22;;;;;;;2.20;2.20;;;;;;;;;;5074209;28;20777;-65
2022/05/11 15:09:48;;;;;;;2.50;2.43;;;;;;;;;;5074267;28;20406;-65
2022/05/11 15:14:59;;;;;;;7.20;2.30;;;;;;;;;;5074329;28;20453;-64
2022/05/11 15:17:26;;;;;;;2.53;2.23;;;;;;;;;;5073944;28;20395;-64
2022/05/11 15:19:53;;;;;;;6.07;2.67;;;;;;;;;;5074370;28;20460;-64
2022/05/11 15:22:19;;;;;;;1.97;1.80;;;;;;;;;;5074187;28;20398;-66
2022/05/11 15:24:45;;;;;;;2.10;2.00;;;;;;;;;;5074135;28;20444;-66
2022/05/11 15:27:12;;;;;;;3.83;2.07;;;;;;;;;;5074075;28;20803;-66
2022/05/11 15:29:38;;;;;;;8.93;2.27;;;;;;;;;;5073713;28;20442;-66
2022/05/11 15:32:09;;;;;;;4.87;2.67;;;;;;;;;;5074051;28;20405;-65
2022/05/11 15:34:36;;;;;;;2.73;2.63;;;;;;;;;;5073932;28;20466;-65
2022/05/11 15:37:03;;;;;;;2.73;2.53;;;;;;;;;;5074029;28;20449;-65
2022/05/11 15:39:29;;;;;;;3.53;2.33;;;;;;;;;;5074234;28;20490;-65
2022/05/11 15:41:58;;;;;;;3.27;2.27;;;;;;;;;;5073722;28;20457;-66
2022/05/11 15:44:25;;;;;;;6.97;2.57;;;;;;;;;;5073648;28;20422;-65